sensor_id;sensor_type;location;lat;lon;timestamp;pressure;altitude;pressure_sealevel;temperature;humidity
22181;BME280;11256;50.830;12.834;2024-03-22T00:02:17;98193.41;;;11.13;59.52
22181;BME280;11256;50.830;12.834;2024-03-22T00:07:18;98184.19;;;11.14;59.81
22181;BME280;11256;50.830;12.834;2024-03-22T00:12:18;98175.78;;;11.10;59.78
22181;BME280;11256;50.830;12.834;2024-03-22T00:17:18;98165.75;;;11.01;59.72
22181;BME280;11256;50.830;12.834;2024-03-22T00:22:18;98150.56;;;10.85;59.72
22181;BME280;11256;50.830;12.834;2024-03-22T00:27:19;98150.00;;;10.83;59.46
22181;BME280;11256;50.830;12.834;2024-03-22T00:32:19;98145.66;;;10.72;59.75
22181;BME280;11256;50.830;12.834;2024-03-22T00:37:20;98132.63;;;10.59;59.70
22181;BME280;11256;50.830;12.834;2024-03-22T00:42:20;98140.50;;;10.55;59.93
22181;BME280;11256;50.830;12.834;2024-03-22T00:47:20;98147.25;;;10.48;60.11
22181;BME280;11256;50.830;12.834;2024-03-22T00:52:21;98148.03;;;10.33;60.17
22181;BME280;11256;50.830;12.834;2024-03-22T00:57:21;98132.28;;;10.20;60.14
22181;BME280;11256;50.830;12.834;2024-03-22T01:02:22;98140.69;;;10.19;60.04
22181;BME280;11256;50.830;12.834;2024-03-22T01:07:22;98146.63;;;10.16;60.40
22181;BME280;11256;50.830;12.834;2024-03-22T01:12:23;98143.09;;;10.10;60.43
22181;BME280;11256;50.830;12.834;2024-03-22T01:17:23;98123.25;;;10.00;60.83
22181;BME280;11256;50.830;12.834;2024-03-22T01:22:24;98118.38;;;10.02;60.29
22181;BME280;11256;50.830;12.834;2024-03-22T01:27:24;98114.88;;;9.96;60.47
22181;BME280;11256;50.830;12.834;2024-03-22T01:32:24;98120.00;;;9.93;60.71
22181;BME280;11256;50.830;12.834;2024-03-22T01:37:25;98098.81;;;9.80;60.53
22181;BME280;11256;50.830;12.834;2024-03-22T01:42:25;98103.19;;;9.86;60.59
22181;BME280;11256;50.830;12.834;2024-03-22T01:47:26;98091.25;;;9.82;60.73
22181;BME280;11256;50.830;12.834;2024-03-22T01:52:26;98086.91;;;9.76;60.78
22181;BME280;11256;50.830;12.834;2024-03-22T01:57:27;98073.91;;;9.73;60.35
22181;BME280;11256;50.830;12.834;2024-03-22T02:02:27;98077.66;;;9.67;60.22
22181;BME280;11256;50.830;12.834;2024-03-22T02:07:29;98069.56;;;9.67;61.03
22181;BME280;11256;50.830;12.834;2024-03-22T02:12:30;98059.53;;;9.62;60.85
22181;BME280;11256;50.830;12.834;2024-03-22T02:17:31;98040.56;;;9.57;60.90
22181;BME280;11256;50.830;12.834;2024-03-22T02:22:32;98040.00;;;9.55;60.93
22181;BME280;11256;50.830;12.834;2024-03-22T02:27:32;98030.25;;;9.49;60.95
22181;BME280;11256;50.830;12.834;2024-03-22T02:32:32;98013.19;;;9.39;60.90
22181;BME280;11256;50.830;12.834;2024-03-22T02:37:33;98004.75;;;9.30;60.75
22181;BME280;11256;50.830;12.834;2024-03-22T02:42:33;98025.09;;;9.38;60.76
22181;BME280;11256;50.830;12.834;2024-03-22T02:47:33;98020.19;;;9.35;61.17
22181;BME280;11256;50.830;12.834;2024-03-22T02:52:34;98019.94;;;9.36;61.10
22181;BME280;11256;50.830;12.834;2024-03-22T02:57:34;98009.13;;;9.36;61.37
22181;BME280;11256;50.830;12.834;2024-03-22T03:02:34;97989.34;;;9.26;61.22
22181;BME280;11256;50.830;12.834;2024-03-22T03:07:35;98000.16;;;9.31;61.03
22181;BME280;11256;50.830;12.834;2024-03-22T03:12:35;97997.44;;;9.31;61.30
22181;BME280;11256;50.830;12.834;2024-03-22T03:17:36;97979.84;;;9.18;61.22
22181;BME280;11256;50.830;12.834;2024-03-22T03:22:36;97989.84;;;9.23;61.35
22181;BME280;11256;50.830;12.834;2024-03-22T03:27:36;97967.13;;;9.19;61.39
22181;BME280;11256;50.830;12.834;2024-03-22T03:32:37;97960.59;;;9.15;61.24
22181;BME280;11256;50.830;12.834;2024-03-22T03:37:37;97958.97;;;9.09;61.38
22181;BME280;11256;50.830;12.834;2024-03-22T03:42:37;97974.13;;;9.15;61.10
22181;BME280;11256;50.830;12.834;2024-03-22T03:47:38;97975.22;;;9.14;61.00
22181;BME280;11256;50.830;12.834;2024-03-22T03:52:38;97962.25;;;9.16;61.63
22181;BME280;11256;50.830;12.834;2024-03-22T03:57:38;97965.22;;;9.14;61.70
22181;BME280;11256;50.830;12.834;2024-03-22T04:02:39;97953.03;;;9.07;61.49
22181;BME280;11256;50.830;12.834;2024-03-22T04:07:39;97965.22;;;9.14;61.34
22181;BME280;11256;50.830;12.834;2024-03-22T04:12:39;97961.97;;;9.12;61.47
22181;BME280;11256;50.830;12.834;2024-03-22T04:17:39;97952.50;;;9.10;61.58
22181;BME280;11256;50.830;12.834;2024-03-22T04:22:40;97943.81;;;9.08;61.50
22181;BME280;11256;50.830;12.834;2024-03-22T04:27:40;97953.53;;;9.04;61.46
22181;BME280;11256;50.830;12.834;2024-03-22T04:32:40;97949.50;;;9.01;61.76
22181;BME280;11256;50.830;12.834;2024-03-22T04:37:41;97934.56;;;8.89;61.55
22181;BME280;11256;50.830;12.834;2024-03-22T04:42:41;97928.63;;;8.92;61.95
22181;BME280;11256;50.830;12.834;2024-03-22T04:47:41;97940.31;;;9.02;61.81
22181;BME280;11256;50.830;12.834;2024-03-22T04:52:43;97921.88;;;8.94;61.67
22181;BME280;11256;50.830;12.834;2024-03-22T04:57:43;97942.19;;;9.02;61.68
22181;BME280;11256;50.830;12.834;2024-03-22T05:02:44;97934.63;;;8.99;61.69
22181;BME280;11256;50.830;12.834;2024-03-22T05:07:45;97934.63;;;8.99;61.79
22181;BME280;11256;50.830;12.834;2024-03-22T05:12:45;97896.97;;;8.82;61.70
22181;BME280;11256;50.830;12.834;2024-03-22T05:17:45;97921.09;;;8.94;61.84
22181;BME280;11256;50.830;12.834;2024-03-22T05:22:47;97900.53;;;8.88;61.87
22181;BME280;11256;50.830;12.834;2024-03-22T05:27:47;97905.09;;;8.87;61.91
22181;BME280;11256;50.830;12.834;2024-03-22T05:32:48;97921.09;;;8.94;61.97
22181;BME280;11256;50.830;12.834;2024-03-22T05:37:50;97887.81;;;8.88;62.39
22181;BME280;11256;50.830;12.834;2024-03-22T05:42:50;97884.88;;;8.95;62.14
22181;BME280;11256;50.830;12.834;2024-03-22T05:47:51;97873.50;;;8.98;62.19
22181;BME280;11256;50.830;12.834;2024-03-22T05:52:52;97875.97;;;9.04;62.56
22181;BME280;11256;50.830;12.834;2024-03-22T05:57:52;97874.06;;;9.00;62.61
22181;BME280;11256;50.830;12.834;2024-03-22T06:02:52;97877.31;;;9.02;62.33
22181;BME280;11256;50.830;12.834;2024-03-22T06:07:52;97870.03;;;9.02;62.61
22181;BME280;11256;50.830;12.834;2024-03-22T06:12:53;97863.28;;;9.05;63.19
22181;BME280;11256;50.830;12.834;2024-03-22T06:17:53;97854.34;;;8.99;63.19
22181;BME280;11256;50.830;12.834;2024-03-22T06:22:54;97870.06;;;9.12;63.10
22181;BME280;11256;50.830;12.834;2024-03-22T06:27:54;97841.91;;;8.98;63.03
22181;BME280;11256;50.830;12.834;2024-03-22T06:32:54;97855.19;;;9.20;63.32
22181;BME280;11256;50.830;12.834;2024-03-22T06:37:55;97830.88;;;9.10;63.56
22181;BME280;11256;50.830;12.834;2024-03-22T06:42:55;97820.59;;;9.17;63.55
22181;BME280;11256;50.830;12.834;2024-03-22T06:47:56;97848.19;;;9.34;63.27
22181;BME280;11256;50.830;12.834;2024-03-22T06:52:56;97843.34;;;9.41;63.44
22181;BME280;11256;50.830;12.834;2024-03-22T06:57:56;97846.84;;;9.41;63.22
22181;BME280;11256;50.830;12.834;2024-03-22T07:02:57;97837.41;;;9.44;63.40
22181;BME280;11256;50.830;12.834;2024-03-22T07:07:57;97857.97;;;9.65;63.48
22181;BME280;11256;50.830;12.834;2024-03-22T07:12:57;97850.13;;;9.73;63.88
22181;BME280;11256;50.830;12.834;2024-03-22T07:17:58;97838.47;;;9.78;63.92
22181;BME280;11256;50.830;12.834;2024-03-22T07:22:58;97832.25;;;10.07;65.10
22181;BME280;11256;50.830;12.834;2024-03-22T07:27:58;97833.97;;;10.67;65.32
22181;BME280;11256;50.830;12.834;2024-03-22T07:32:59;97840.63;;;11.38;64.72
22181;BME280;11256;50.830;12.834;2024-03-22T07:37:59;97826.69;;;11.93;63.57
22181;BME280;11256;50.830;12.834;2024-03-22T07:42:59;97831.91;;;12.65;62.52
22181;BME280;11256;50.830;12.834;2024-03-22T07:48:00;97829.69;;;13.32;60.40
22181;BME280;11256;50.830;12.834;2024-03-22T07:53:00;97822.38;;;13.65;59.37
22181;BME280;11256;50.830;12.834;2024-03-22T07:58:00;97807.19;;;13.77;57.92
22181;BME280;11256;50.830;12.834;2024-03-22T08:03:01;97804.88;;;13.84;57.21
22181;BME280;11256;50.830;12.834;2024-03-22T08:08:01;97819.81;;;13.87;56.49
22181;BME280;11256;50.830;12.834;2024-03-22T08:13:01;97798.19;;;13.77;56.52
22181;BME280;11256;50.830;12.834;2024-03-22T08:18:04;97802.66;;;13.73;56.35
22181;BME280;11256;50.830;12.834;2024-03-22T08:23:05;97782.56;;;13.50;56.41
22181;BME280;11256;50.830;12.834;2024-03-22T08:28:05;97799.53;;;13.61;56.32
22181;BME280;11256;50.830;12.834;2024-03-22T08:33:05;97800.38;;;13.61;56.58
22181;BME280;11256;50.830;12.834;2024-03-22T08:38:06;97792.69;;;13.63;56.84
22181;BME280;11256;50.830;12.834;2024-03-22T08:43:14;97796.41;;;13.86;57.15
22181;BME280;11256;50.830;12.834;2024-03-22T08:48:15;97773.91;;;13.94;56.84
22181;BME280;11256;50.830;12.834;2024-03-22T08:53:15;97785.56;;;14.13;56.05
22181;BME280;11256;50.830;12.834;2024-03-22T08:58:15;97779.16;;;14.22;55.76
22181;BME280;11256;50.830;12.834;2024-03-22T09:03:17;97778.16;;;14.32;55.38
22181;BME280;11256;50.830;12.834;2024-03-22T09:08:18;97762.31;;;14.34;55.05
22181;BME280;11256;50.830;12.834;2024-03-22T09:13:19;97760.59;;;14.38;54.80
22181;BME280;11256;50.830;12.834;2024-03-22T09:18:19;97749.69;;;14.38;54.83
22181;BME280;11256;50.830;12.834;2024-03-22T09:23:20;97750.50;;;14.52;54.81
22181;BME280;11256;50.830;12.834;2024-03-22T09:28:20;97739.66;;;14.60;54.66
22181;BME280;11256;50.830;12.834;2024-03-22T09:33:20;97754.09;;;14.88;54.45
22181;BME280;11256;50.830;12.834;2024-03-22T09:38:21;97746.22;;;15.22;53.82
22181;BME280;11256;50.830;12.834;2024-03-22T09:43:21;97749.31;;;15.64;54.15
22181;BME280;11256;50.830;12.834;2024-03-22T09:48:22;97734.41;;;16.01;53.65
22181;BME280;11256;50.830;12.834;2024-03-22T09:53:25;97722.81;;;16.34;52.48
22181;BME280;11256;50.830;12.834;2024-03-22T09:58:27;97727.50;;;16.81;52.58
22181;BME280;11256;50.830;12.834;2024-03-22T10:03:28;97699.19;;;16.94;51.51
22181;BME280;11256;50.830;12.834;2024-03-22T10:08:28;97705.16;;;17.22;50.92
22181;BME280;11256;50.830;12.834;2024-03-22T10:13:28;97687.59;;;17.23;50.37
22181;BME280;11256;50.830;12.834;2024-03-22T10:18:29;97703.22;;;17.31;50.72
22181;BME280;11256;50.830;12.834;2024-03-22T10:23:30;97694.81;;;17.36;50.08
22181;BME280;11256;50.830;12.834;2024-03-22T10:28:31;97691.13;;;17.23;50.23
22181;BME280;11256;50.830;12.834;2024-03-22T10:33:32;97690.31;;;17.23;50.30
22181;BME280;11256;50.830;12.834;2024-03-22T10:38:36;97674.06;;;17.09;50.14
22181;BME280;11256;50.830;12.834;2024-03-22T10:43:38;97668.09;;;17.16;51.01
22181;BME280;11256;50.830;12.834;2024-03-22T10:48:39;97657.47;;;17.23;51.12
22181;BME280;11256;50.830;12.834;2024-03-22T10:53:43;97658.59;;;17.30;51.03
22181;BME280;11256;50.830;12.834;2024-03-22T10:58:43;97635.22;;;17.33;50.69
22181;BME280;11256;50.830;12.834;2024-03-22T11:03:47;97643.59;;;17.45;50.74
22181;BME280;11256;50.830;12.834;2024-03-22T11:08:51;97627.75;;;17.59;50.81
22181;BME280;11256;50.830;12.834;2024-03-22T11:13:53;97635.94;;;17.76;50.80
22181;BME280;11256;50.830;12.834;2024-03-22T11:18:54;97624.13;;;17.84;50.50
22181;BME280;11256;50.830;12.834;2024-03-22T11:23:55;97616.16;;;17.99;49.82
22181;BME280;11256;50.830;12.834;2024-03-22T11:28:55;97599.88;;;18.03;50.01
22181;BME280;11256;50.830;12.834;2024-03-22T11:33:56;97589.22;;;18.01;49.49
22181;BME280;11256;50.830;12.834;2024-03-22T11:38:56;97597.03;;;18.20;49.62
22181;BME280;11256;50.830;12.834;2024-03-22T11:43:58;97584.25;;;18.24;49.82
22181;BME280;11256;50.830;12.834;2024-03-22T11:48:59;97571.34;;;18.24;49.10
22181;BME280;11256;50.830;12.834;2024-03-22T11:54:02;97569.88;;;18.27;49.56
22181;BME280;11256;50.830;12.834;2024-03-22T11:59:03;97566.22;;;18.43;49.09
22181;BME280;11256;50.830;12.834;2024-03-22T12:04:03;97558.16;;;18.47;49.81
22181;BME280;11256;50.830;12.834;2024-03-22T12:09:04;97556.81;;;18.53;50.15
22181;BME280;11256;50.830;12.834;2024-03-22T12:14:04;97536.13;;;18.55;49.97
22181;BME280;11256;50.830;12.834;2024-03-22T12:19:05;97539.31;;;18.78;49.05
22181;BME280;11256;50.830;12.834;2024-03-22T12:24:07;97531.81;;;18.87;49.09
22181;BME280;11256;50.830;12.834;2024-03-22T12:29:07;97523.31;;;18.80;48.40
22181;BME280;11256;50.830;12.834;2024-03-22T12:34:08;97529.19;;;18.90;48.47
22181;BME280;11256;50.830;12.834;2024-03-22T12:39:08;97509.81;;;18.87;48.47
22181;BME280;11256;50.830;12.834;2024-03-22T12:44:09;97504.09;;;18.80;48.93
22181;BME280;11256;50.830;12.834;2024-03-22T12:49:09;97519.59;;;18.96;47.72
22181;BME280;11256;50.830;12.834;2024-03-22T12:54:10;97500.44;;;18.88;48.44
22181;BME280;11256;50.830;12.834;2024-03-22T12:59:11;97495.16;;;18.83;48.43
22181;BME280;11256;50.830;12.834;2024-03-22T13:04:11;97485.31;;;18.82;47.86
22181;BME280;11256;50.830;12.834;2024-03-22T13:09:11;97486.81;;;18.79;48.10
22181;BME280;11256;50.830;12.834;2024-03-22T13:14:14;97473.28;;;18.74;48.09
22181;BME280;11256;50.830;12.834;2024-03-22T13:19:15;97455.50;;;18.60;47.78
22181;BME280;11256;50.830;12.834;2024-03-22T13:24:15;97452.97;;;18.55;47.51
22181;BME280;11256;50.830;12.834;2024-03-22T13:29:16;97444.69;;;18.43;47.93
22181;BME280;11256;50.830;12.834;2024-03-22T13:34:16;97439.59;;;18.33;48.07
22181;BME280;11256;50.830;12.834;2024-03-22T13:39:17;97415.78;;;18.25;48.31
22181;BME280;11256;50.830;12.834;2024-03-22T13:44:17;97421.59;;;18.23;48.75
22181;BME280;11256;50.830;12.834;2024-03-22T13:49:19;97405.31;;;18.18;48.79
22181;BME280;11256;50.830;12.834;2024-03-22T13:54:20;97389.16;;;18.05;49.00
22181;BME280;11256;50.830;12.834;2024-03-22T13:59:22;97387.13;;;18.14;48.92
22181;BME280;11256;50.830;12.834;2024-03-22T14:04:23;97388.13;;;18.09;49.29
22181;BME280;11256;50.830;12.834;2024-03-22T14:09:24;97372.69;;;18.05;49.56
22181;BME280;11256;50.830;12.834;2024-03-22T14:14:26;97375.88;;;18.07;49.76
22181;BME280;11256;50.830;12.834;2024-03-22T14:19:27;97345.13;;;18.01;49.88
22181;BME280;11256;50.830;12.834;2024-03-22T14:24:27;97346.53;;;18.07;50.03
22181;BME280;11256;50.830;12.834;2024-03-22T14:29:27;97334.75;;;18.07;50.19
22181;BME280;11256;50.830;12.834;2024-03-22T14:34:28;97336.22;;;18.04;50.25
22181;BME280;11256;50.830;12.834;2024-03-22T14:39:28;97313.44;;;17.92;50.25
22181;BME280;11256;50.830;12.834;2024-03-22T14:44:28;97327.88;;;18.01;50.27
22181;BME280;11256;50.830;12.834;2024-03-22T14:49:29;97328.06;;;17.96;50.55
22181;BME280;11256;50.830;12.834;2024-03-22T14:54:29;97318.94;;;17.92;50.79
22181;BME280;11256;50.830;12.834;2024-03-22T14:59:29;97305.16;;;17.80;50.94
22181;BME280;11256;50.830;12.834;2024-03-22T15:04:30;97314.78;;;17.86;51.05
22181;BME280;11256;50.830;12.834;2024-03-22T15:09:30;97306.09;;;17.84;51.25
22181;BME280;11256;50.830;12.834;2024-03-22T15:14:32;97322.53;;;17.84;51.41
22181;BME280;11256;50.830;12.834;2024-03-22T15:19:32;97315.47;;;17.83;51.49
22181;BME280;11256;50.830;12.834;2024-03-22T15:24:32;97306.09;;;17.84;51.31
22181;BME280;11256;50.830;12.834;2024-03-22T15:29:32;97319.34;;;17.82;51.36
22181;BME280;11256;50.830;12.834;2024-03-22T15:34:33;97319.06;;;17.75;51.32
22181;BME280;11256;50.830;12.834;2024-03-22T15:39:33;97297.94;;;17.75;51.36
22181;BME280;11256;50.830;12.834;2024-03-22T15:44:33;97300.75;;;17.67;50.83
22181;BME280;11256;50.830;12.834;2024-03-22T15:49:34;97300.63;;;17.63;50.90
22181;BME280;11256;50.830;12.834;2024-03-22T15:54:34;97278.97;;;17.50;51.11
22181;BME280;11256;50.830;12.834;2024-03-22T15:59:34;97301.16;;;17.57;51.01
22181;BME280;11256;50.830;12.834;2024-03-22T16:04:35;97289.13;;;17.49;50.86
22181;BME280;11256;50.830;12.834;2024-03-22T16:09:36;97294.28;;;17.51;51.15
22181;BME280;11256;50.830;12.834;2024-03-22T16:14:37;97264.88;;;17.39;51.33
22181;BME280;11256;50.830;12.834;2024-03-22T16:19:40;97271.00;;;17.36;51.43
22181;BME280;11256;50.830;12.834;2024-03-22T16:24:40;97271.31;;;17.35;51.60
22181;BME280;11256;50.830;12.834;2024-03-22T16:29:41;97253.41;;;17.17;51.60
22181;BME280;11256;50.830;12.834;2024-03-22T16:34:41;97268.50;;;17.23;51.55
22181;BME280;11256;50.830;12.834;2024-03-22T16:39:41;97261.97;;;17.15;51.67
22181;BME280;11256;50.830;12.834;2024-03-22T16:44:42;97262.47;;;17.09;51.78
22181;BME280;11256;50.830;12.834;2024-03-22T16:49:42;97264.75;;;17.07;51.86
22181;BME280;11256;50.830;12.834;2024-03-22T16:54:42;97262.41;;;16.97;51.76
22181;BME280;11256;50.830;12.834;2024-03-22T16:59:43;97262.13;;;16.90;52.20
22181;BME280;11256;50.830;12.834;2024-03-22T17:04:43;97252.50;;;16.84;52.44
22181;BME280;11256;50.830;12.834;2024-03-22T17:09:43;97245.31;;;16.71;52.60
22181;BME280;11256;50.830;12.834;2024-03-22T17:14:44;97245.03;;;16.64;52.80
22181;BME280;11256;50.830;12.834;2024-03-22T17:19:45;97245.56;;;16.57;52.90
22181;BME280;11256;50.830;12.834;2024-03-22T17:24:45;97235.59;;;16.53;53.44
22181;BME280;11256;50.830;12.834;2024-03-22T17:29:45;97233.25;;;16.43;53.31
22181;BME280;11256;50.830;12.834;2024-03-22T17:34:46;97224.72;;;16.36;53.60
22181;BME280;11256;50.830;12.834;2024-03-22T17:39:46;97219.31;;;16.19;53.56
22181;BME280;11256;50.830;12.834;2024-03-22T17:44:46;97222.06;;;16.19;53.49
22181;BME280;11256;50.830;12.834;2024-03-22T17:49:47;97207.31;;;16.03;53.82
22181;BME280;11256;50.830;12.834;2024-03-22T17:54:48;97212.94;;;16.06;54.39
22181;BME280;11256;50.830;12.834;2024-03-22T17:59:48;97213.41;;;16.00;54.45
22181;BME280;11256;50.830;12.834;2024-03-22T18:04:49;97209.25;;;15.94;54.47
22181;BME280;11256;50.830;12.834;2024-03-22T18:09:49;97208.16;;;15.86;54.52
22181;BME280;11256;50.830;12.834;2024-03-22T18:14:50;97191.97;;;15.73;54.40
22181;BME280;11256;50.830;12.834;2024-03-22T18:19:50;97201.75;;;15.74;54.84
22181;BME280;11256;50.830;12.834;2024-03-22T18:24:50;97178.31;;;15.64;55.08
22181;BME280;11256;50.830;12.834;2024-03-22T18:29:51;97143.50;;;15.53;55.09
22181;BME280;11256;50.830;12.834;2024-03-22T18:34:51;97156.03;;;15.54;55.58
22181;BME280;11256;50.830;12.834;2024-03-22T18:39:52;97157.63;;;15.55;55.91
22181;BME280;11256;50.830;12.834;2024-03-22T18:44:52;97126.66;;;15.42;55.95
22181;BME280;11256;50.830;12.834;2024-03-22T18:49:52;97137.72;;;15.46;56.26
22181;BME280;11256;50.830;12.834;2024-03-22T18:54:57;97135.16;;;15.41;55.96
22181;BME280;11256;50.830;12.834;2024-03-22T19:00:00;97141.59;;;15.36;56.16
22181;BME280;11256;50.830;12.834;2024-03-22T19:05:00;97140.44;;;15.29;56.27
22181;BME280;11256;50.830;12.834;2024-03-22T19:10:01;97147.66;;;15.25;56.33
22181;BME280;11256;50.830;12.834;2024-03-22T19:15:02;97127.78;;;15.16;56.26
22181;BME280;11256;50.830;12.834;2024-03-22T19:20:03;97122.97;;;15.13;56.38
22181;BME280;11256;50.830;12.834;2024-03-22T19:25:05;97126.53;;;15.05;56.32
22181;BME280;11256;50.830;12.834;2024-03-22T19:30:07;97121.38;;;14.95;56.54
22181;BME280;11256;50.830;12.834;2024-03-22T19:35:08;97117.69;;;14.91;56.30
22181;BME280;11256;50.830;12.834;2024-03-22T19:40:09;97108.38;;;14.92;56.51
22181;BME280;11256;50.830;12.834;2024-03-22T19:45:10;97097.97;;;14.85;56.40
22181;BME280;11256;50.830;12.834;2024-03-22T19:50:11;97095.72;;;14.79;56.31
22181;BME280;11256;50.830;12.834;2024-03-22T19:55:11;97090.88;;;14.76;56.44
22181;BME280;11256;50.830;12.834;2024-03-22T20:00:12;97078.88;;;14.60;56.43
22181;BME280;11256;50.830;12.834;2024-03-22T20:05:12;97075.66;;;14.58;56.30
22181;BME280;11256;50.830;12.834;2024-03-22T20:10:13;97087.53;;;14.62;56.70
22181;BME280;11256;50.830;12.834;2024-03-22T20:15:13;97087.69;;;14.57;56.51
22181;BME280;11256;50.830;12.834;2024-03-22T20:20:14;97084.66;;;14.50;56.84
22181;BME280;11256;50.830;12.834;2024-03-22T20:25:14;97084.66;;;14.50;56.98
22181;BME280;11256;50.830;12.834;2024-03-22T20:30:15;97081.44;;;14.48;57.15
22181;BME280;11256;50.830;12.834;2024-03-22T20:35:15;97071.63;;;14.38;57.02
